sensor_id;sensor_type;location;lat;lon;timestamp;pressure;altitude;pressure_sealevel;temperature;humidity
15568;BME280;7885;42.596;23.044;2023-02-26T00:01:25;91892.47;;;12.13;63.56
15568;BME280;7885;42.596;23.044;2023-02-26T00:03:54;91906.03;;;12.17;63.28
15568;BME280;7885;42.596;23.044;2023-02-26T00:06:23;91816.97;;;11.82;63.24
15568;BME280;7885;42.596;23.044;2023-02-26T00:08:50;91854.78;;;11.96;63.22
15568;BME280;7885;42.596;23.044;2023-02-26T00:11:17;91879.97;;;12.16;62.80
15568;BME280;7885;42.596;23.044;2023-02-26T00:13:45;91907.78;;;11.95;63.13
15568;BME280;7885;42.596;23.044;2023-02-26T00:16:25;91863.03;;;12.08;63.73
15568;BME280;7885;42.596;23.044;2023-02-26T00:18:52;91899.66;;;12.07;64.13
15568;BME280;7885;42.596;23.044;2023-02-26T00:21:21;91899.41;;;12.02;64.75
15568;BME280;7885;42.596;23.044;2023-02-26T00:23:50;91899.06;;;12.00;65.11
15568;BME280;7885;42.596;23.044;2023-02-26T00:26:17;91879.31;;;11.80;66.10
15568;BME280;7885;42.596;23.044;2023-02-26T00:28:44;91864.31;;;11.88;66.74
15568;BME280;7885;42.596;23.044;2023-02-26T00:31:13;91877.72;;;11.82;67.42
15568;BME280;7885;42.596;23.044;2023-02-26T00:33:41;91890.31;;;11.76;67.94
15568;BME280;7885;42.596;23.044;2023-02-26T00:36:18;91889.22;;;11.74;68.45
15568;BME280;7885;42.596;23.044;2023-02-26T00:38:54;91832.47;;;11.52;68.98
15568;BME280;7885;42.596;23.044;2023-02-26T00:41:23;91863.63;;;11.68;68.90
15568;BME280;7885;42.596;23.044;2023-02-26T00:43:50;91863.97;;;11.70;68.18
15568;BME280;7885;42.596;23.044;2023-02-26T00:46:21;91884.94;;;11.73;66.78
15568;BME280;7885;42.596;23.044;2023-02-26T00:48:54;91837.91;;;11.69;67.06
15568;BME280;7885;42.596;23.044;2023-02-26T00:51:30;91850.72;;;11.72;66.45
15568;BME280;7885;42.596;23.044;2023-02-26T00:54:02;91851.06;;;11.74;66.80
15568;BME280;7885;42.596;23.044;2023-02-26T00:56:33;91851.38;;;11.76;66.81
15568;BME280;7885;42.596;23.044;2023-02-26T00:59:00;91848.66;;;11.76;65.67
15568;BME280;7885;42.596;23.044;2023-02-26T01:01:26;91828.75;;;11.79;65.93
15568;BME280;7885;42.596;23.044;2023-02-26T01:03:54;91851.72;;;11.78;65.72
15568;BME280;7885;42.596;23.044;2023-02-26T01:06:25;91832.66;;;11.78;66.01
15568;BME280;7885;42.596;23.044;2023-02-26T01:12:00;91839.66;;;11.79;65.53
15568;BME280;7885;42.596;23.044;2023-02-26T01:14:29;91812.91;;;11.74;65.42
15568;BME280;7885;42.596;23.044;2023-02-26T01:17:03;91819.84;;;11.58;65.80
15568;BME280;7885;42.596;23.044;2023-02-26T01:19:38;91812.56;;;11.72;65.62
15568;BME280;7885;42.596;23.044;2023-02-26T01:22:11;91812.47;;;11.75;65.02
15568;BME280;7885;42.596;23.044;2023-02-26T01:24:38;91794.66;;;11.71;63.99
15568;BME280;7885;42.596;23.044;2023-02-26T01:27:07;91783.78;;;11.71;63.36
15568;BME280;7885;42.596;23.044;2023-02-26T01:29:34;91808.25;;;11.87;63.06
15568;BME280;7885;42.596;23.044;2023-02-26T01:32:05;91805.81;;;11.92;62.38
15568;BME280;7885;42.596;23.044;2023-02-26T01:34:36;91776.09;;;11.82;62.69
15568;BME280;7885;42.596;23.044;2023-02-26T01:37:13;91788.59;;;11.95;62.18
15568;BME280;7885;42.596;23.044;2023-02-26T01:39:47;91790.22;;;11.93;62.10
15568;BME280;7885;42.596;23.044;2023-02-26T01:42:22;91784.31;;;11.94;62.13
15568;BME280;7885;42.596;23.044;2023-02-26T01:44:56;91758.16;;;11.97;61.34
15568;BME280;7885;42.596;23.044;2023-02-26T01:47:28;91751.13;;;11.67;61.68
15568;BME280;7885;42.596;23.044;2023-02-26T01:49:56;91810.91;;;11.90;61.53
15568;BME280;7885;42.596;23.044;2023-02-26T01:55:30;91760.63;;;11.91;60.81
15568;BME280;7885;42.596;23.044;2023-02-26T01:57:59;91722.25;;;11.70;60.63
15568;BME280;7885;42.596;23.044;2023-02-26T02:00:27;91730.81;;;11.72;60.65
15568;BME280;7885;42.596;23.044;2023-02-26T02:02:54;91781.69;;;11.91;61.00
15568;BME280;7885;42.596;23.044;2023-02-26T02:05:24;91762.94;;;11.93;60.57
15568;BME280;7885;42.596;23.044;2023-02-26T02:07:54;91714.63;;;11.64;60.46
15568;BME280;7885;42.596;23.044;2023-02-26T02:10:21;91747.44;;;11.90;60.23
15568;BME280;7885;42.596;23.044;2023-02-26T02:12:54;91799.22;;;11.90;59.90
15568;BME280;7885;42.596;23.044;2023-02-26T02:15:31;91711.78;;;11.68;59.16
15568;BME280;7885;42.596;23.044;2023-02-26T02:18:03;91763.59;;;11.97;58.53
15568;BME280;7885;42.596;23.044;2023-02-26T02:20:56;91735.34;;;11.91;58.25
15568;BME280;7885;42.596;23.044;2023-02-26T02:23:29;91757.28;;;12.00;57.96
15568;BME280;7885;42.596;23.044;2023-02-26T02:26:13;91744.78;;;12.02;57.66
15568;BME280;7885;42.596;23.044;2023-02-26T02:29:00;91763.41;;;12.04;57.24
15568;BME280;7885;42.596;23.044;2023-02-26T02:31:39;91742.22;;;11.95;57.22
15568;BME280;7885;42.596;23.044;2023-02-26T02:34:12;91756.53;;;11.99;57.10
15568;BME280;7885;42.596;23.044;2023-02-26T02:36:46;91730.69;;;12.04;56.51
15568;BME280;7885;42.596;23.044;2023-02-26T02:39:17;91745.00;;;12.08;56.10
15568;BME280;7885;42.596;23.044;2023-02-26T02:41:49;91744.41;;;12.00;56.62
15568;BME280;7885;42.596;23.044;2023-02-26T02:44:18;91751.09;;;11.99;56.76
15568;BME280;7885;42.596;23.044;2023-02-26T02:46:51;91737.56;;;12.08;56.15
15568;BME280;7885;42.596;23.044;2023-02-26T02:49:24;91740.72;;;12.07;55.98
15568;BME280;7885;42.596;23.044;2023-02-26T02:51:55;91756.09;;;12.01;56.24
15568;BME280;7885;42.596;23.044;2023-02-26T02:54:39;91754.91;;;12.02;55.46
15568;BME280;7885;42.596;23.044;2023-02-26T02:57:11;91762.53;;;12.07;54.64
15568;BME280;7885;42.596;23.044;2023-02-26T02:59:41;91716.78;;;11.70;55.40
15568;BME280;7885;42.596;23.044;2023-02-26T03:02:14;91749.31;;;11.93;54.71
15568;BME280;7885;42.596;23.044;2023-02-26T03:04:43;91778.72;;;12.14;53.75
15568;BME280;7885;42.596;23.044;2023-02-26T03:07:10;91770.22;;;12.12;53.42
15568;BME280;7885;42.596;23.044;2023-02-26T03:09:37;91719.78;;;12.04;52.62
15568;BME280;7885;42.596;23.044;2023-02-26T03:12:04;91754.63;;;12.12;52.54
15568;BME280;7885;42.596;23.044;2023-02-26T03:14:31;91742.38;;;12.17;52.83
15568;BME280;7885;42.596;23.044;2023-02-26T03:17:05;91719.84;;;11.88;52.71
15568;BME280;7885;42.596;23.044;2023-02-26T03:19:40;91746.34;;;12.16;52.19
15568;BME280;7885;42.596;23.044;2023-02-26T03:22:12;91712.56;;;11.97;51.81
15568;BME280;7885;42.596;23.044;2023-02-26T03:24:47;91723.97;;;12.21;51.34
15568;BME280;7885;42.596;23.044;2023-02-26T03:27:21;91751.03;;;12.28;51.33
15568;BME280;7885;42.596;23.044;2023-02-26T03:29:54;91741.88;;;12.22;51.61
15568;BME280;7885;42.596;23.044;2023-02-26T03:32:26;91743.81;;;12.09;51.73
15568;BME280;7885;42.596;23.044;2023-02-26T03:35:00;91751.13;;;12.25;52.29
15568;BME280;7885;42.596;23.044;2023-02-26T03:37:33;91721.03;;;12.15;52.05
15568;BME280;7885;42.596;23.044;2023-02-26T03:40:06;91735.91;;;12.27;52.18
15568;BME280;7885;42.596;23.044;2023-02-26T03:42:39;91695.59;;;12.06;52.39
15568;BME280;7885;42.596;23.044;2023-02-26T03:45:11;91719.94;;;12.13;53.04
15568;BME280;7885;42.596;23.044;2023-02-26T03:47:41;91714.03;;;12.14;53.48
15568;BME280;7885;42.596;23.044;2023-02-26T03:50:14;91750.56;;;12.17;53.42
15568;BME280;7885;42.596;23.044;2023-02-26T03:52:46;91717.84;;;12.17;54.06
15568;BME280;7885;42.596;23.044;2023-02-26T03:55:16;91709.34;;;12.15;54.27
15568;BME280;7885;42.596;23.044;2023-02-26T03:57:43;91733.03;;;12.18;54.94
15568;BME280;7885;42.596;23.044;2023-02-26T04:00:12;91719.38;;;12.18;55.87
15568;BME280;7885;42.596;23.044;2023-02-26T04:02:42;91680.16;;;11.87;55.60
15568;BME280;7885;42.596;23.044;2023-02-26T04:05:15;91733.22;;;12.11;56.05
15568;BME280;7885;42.596;23.044;2023-02-26T04:07:44;91766.03;;;12.07;56.40
15568;BME280;7885;42.596;23.044;2023-02-26T04:10:13;91722.41;;;12.07;56.72
15568;BME280;7885;42.596;23.044;2023-02-26T04:12:42;91722.38;;;11.95;57.17
15568;BME280;7885;42.596;23.044;2023-02-26T04:15:10;91709.75;;;12.01;57.01
15568;BME280;7885;42.596;23.044;2023-02-26T04:17:36;91703.19;;;11.98;56.47
15568;BME280;7885;42.596;23.044;2023-02-26T04:20:05;91692.50;;;12.04;56.46
15568;BME280;7885;42.596;23.044;2023-02-26T04:22:35;91663.13;;;11.83;56.75
15568;BME280;7885;42.596;23.044;2023-02-26T04:28:15;91693.38;;;12.01;55.74
15568;BME280;7885;42.596;23.044;2023-02-26T04:30:42;91692.50;;;12.04;56.03
15568;BME280;7885;42.596;23.044;2023-02-26T04:33:09;91698.84;;;12.01;56.18
15568;BME280;7885;42.596;23.044;2023-02-26T04:35:36;91678.47;;;12.05;54.09
15568;BME280;7885;42.596;23.044;2023-02-26T04:38:04;91700.16;;;12.09;54.16
15568;BME280;7885;42.596;23.044;2023-02-26T04:40:30;91685.34;;;12.10;53.32
15568;BME280;7885;42.596;23.044;2023-02-26T04:42:57;91709.63;;;12.04;52.93
15568;BME280;7885;42.596;23.044;2023-02-26T04:45:24;91692.97;;;12.15;53.09
15568;BME280;7885;42.596;23.044;2023-02-26T04:47:51;91686.19;;;12.07;53.87
15568;BME280;7885;42.596;23.044;2023-02-26T04:50:17;91722.22;;;12.14;53.54
15568;BME280;7885;42.596;23.044;2023-02-26T04:52:44;91684.78;;;12.15;53.77
15568;BME280;7885;42.596;23.044;2023-02-26T04:55:12;91692.31;;;12.11;54.44
15568;BME280;7885;42.596;23.044;2023-02-26T05:01:01;91680.94;;;12.00;55.53
15568;BME280;7885;42.596;23.044;2023-02-26T05:03:28;91674.75;;;11.99;54.90
15568;BME280;7885;42.596;23.044;2023-02-26T05:05:54;91638.28;;;11.93;54.73
15568;BME280;7885;42.596;23.044;2023-02-26T05:08:21;91659.78;;;12.04;55.06
15568;BME280;7885;42.596;23.044;2023-02-26T05:10:49;91675.16;;;11.98;55.32
15568;BME280;7885;42.596;23.044;2023-02-26T05:13:16;91687.25;;;11.97;55.21
15568;BME280;7885;42.596;23.044;2023-02-26T05:19:05;91695.31;;;11.88;55.78
15568;BME280;7885;42.596;23.044;2023-02-26T05:21:31;91680.28;;;11.96;54.93
15568;BME280;7885;42.596;23.044;2023-02-26T05:23:58;91643.19;;;11.57;55.69
15568;BME280;7885;42.596;23.044;2023-02-26T05:26:26;91713.97;;;11.89;55.86
15568;BME280;7885;42.596;23.044;2023-02-26T05:28:53;91629.78;;;11.62;55.92
15568;BME280;7885;42.596;23.044;2023-02-26T05:31:20;91699.13;;;11.90;55.68
15568;BME280;7885;42.596;23.044;2023-02-26T05:33:47;91715.59;;;11.87;56.27
15568;BME280;7885;42.596;23.044;2023-02-26T05:36:13;91699.91;;;11.91;56.24
15568;BME280;7885;42.596;23.044;2023-02-26T05:45:25;91702.09;;;11.96;55.50
15568;BME280;7885;42.596;23.044;2023-02-26T05:47:52;91673.22;;;11.98;55.86
15568;BME280;7885;42.596;23.044;2023-02-26T05:50:19;91685.66;;;11.99;55.05
15568;BME280;7885;42.596;23.044;2023-02-26T05:52:46;91692.50;;;12.04;55.00
15568;BME280;7885;42.596;23.044;2023-02-26T05:55:13;91719.25;;;12.09;54.76
15568;BME280;7885;42.596;23.044;2023-02-26T05:57:39;91660.25;;;12.15;54.33
15568;BME280;7885;42.596;23.044;2023-02-26T06:00:07;91668.44;;;12.15;55.00
15568;BME280;7885;42.596;23.044;2023-02-26T06:02:35;91666.97;;;11.98;54.27
15568;BME280;7885;42.596;23.044;2023-02-26T06:05:03;91684.16;;;12.24;54.73
15568;BME280;7885;42.596;23.044;2023-02-26T06:07:30;91691.34;;;12.18;54.64
15568;BME280;7885;42.596;23.044;2023-02-26T06:09:56;91685.16;;;12.30;54.33
15568;BME280;7885;42.596;23.044;2023-02-26T06:12:23;91728.69;;;12.33;54.49
15568;BME280;7885;42.596;23.044;2023-02-26T06:14:50;91656.91;;;12.24;54.00
15568;BME280;7885;42.596;23.044;2023-02-26T06:17:16;91715.63;;;12.53;53.56
15568;BME280;7885;42.596;23.044;2023-02-26T06:19:44;91698.28;;;12.47;52.90
15568;BME280;7885;42.596;23.044;2023-02-26T06:22:11;91709.41;;;12.65;52.64
15568;BME280;7885;42.596;23.044;2023-02-26T06:24:38;91730.16;;;12.76;51.86
15568;BME280;7885;42.596;23.044;2023-02-26T06:27:05;91715.41;;;12.73;51.03
15568;BME280;7885;42.596;23.044;2023-02-26T06:29:32;91734.00;;;12.78;49.88
15568;BME280;7885;42.596;23.044;2023-02-26T06:31:58;91691.72;;;12.83;50.46
15568;BME280;7885;42.596;23.044;2023-02-26T06:34:25;91704.91;;;12.97;49.39
15568;BME280;7885;42.596;23.044;2023-02-26T06:36:53;91702.09;;;12.88;48.19
15568;BME280;7885;42.596;23.044;2023-02-26T06:39:20;91708.75;;;13.12;47.64
15568;BME280;7885;42.596;23.044;2023-02-26T06:41:47;91706.69;;;13.16;47.06
15568;BME280;7885;42.596;23.044;2023-02-26T06:44:13;91711.28;;;13.19;46.91
15568;BME280;7885;42.596;23.044;2023-02-26T06:46:40;91740.00;;;13.71;45.96
15568;BME280;7885;42.596;23.044;2023-02-26T06:49:07;91729.13;;;13.80;44.96
15568;BME280;7885;42.596;23.044;2023-02-26T06:51:34;91705.06;;;13.53;45.23
15568;BME280;7885;42.596;23.044;2023-02-26T06:54:03;91710.22;;;14.07;44.08
15568;BME280;7885;42.596;23.044;2023-02-26T06:56:30;91779.94;;;14.24;44.45
15568;BME280;7885;42.596;23.044;2023-02-26T06:58:56;91727.16;;;14.36;43.74
15568;BME280;7885;42.596;23.044;2023-02-26T07:01:23;91759.13;;;14.39;43.86
15568;BME280;7885;42.596;23.044;2023-02-26T07:03:50;91691.25;;;13.91;44.55
15568;BME280;7885;42.596;23.044;2023-02-26T07:06:16;91781.03;;;14.39;44.49
15568;BME280;7885;42.596;23.044;2023-02-26T07:08:43;91738.00;;;14.40;44.19
15568;BME280;7885;42.596;23.044;2023-02-26T07:14:33;91734.41;;;14.30;45.29
15568;BME280;7885;42.596;23.044;2023-02-26T07:17:00;91782.22;;;14.04;46.00
15568;BME280;7885;42.596;23.044;2023-02-26T07:19:27;91724.72;;;13.95;47.72
15568;BME280;7885;42.596;23.044;2023-02-26T07:21:54;91766.97;;;14.15;47.15
15568;BME280;7885;42.596;23.044;2023-02-26T07:24:21;91729.25;;;14.32;47.83
15568;BME280;7885;42.596;23.044;2023-02-26T07:26:48;91729.81;;;14.49;46.79
15568;BME280;7885;42.596;23.044;2023-02-26T07:29:15;91745.38;;;14.83;45.62
15568;BME280;7885;42.596;23.044;2023-02-26T07:31:43;91742.44;;;15.08;45.12
15568;BME280;7885;42.596;23.044;2023-02-26T07:34:10;91814.59;;;15.05;44.68
15568;BME280;7885;42.596;23.044;2023-02-26T07:36:36;91745.22;;;15.17;44.75
15568;BME280;7885;42.596;23.044;2023-02-26T07:39:03;91721.78;;;15.16;44.40
15568;BME280;7885;42.596;23.044;2023-02-26T07:41:30;91724.50;;;14.76;46.06
15568;BME280;7885;42.596;23.044;2023-02-26T07:43:56;91726.50;;;14.32;46.88
15568;BME280;7885;42.596;23.044;2023-02-26T07:46:23;91689.72;;;14.33;47.11
15568;BME280;7885;42.596;23.044;2023-02-26T07:48:51;91729.25;;;14.85;46.85
15568;BME280;7885;42.596;23.044;2023-02-26T07:51:18;91727.19;;;14.98;45.98
15568;BME280;7885;42.596;23.044;2023-02-26T07:53:45;91685.16;;;14.92;45.73
15568;BME280;7885;42.596;23.044;2023-02-26T07:56:11;91720.38;;;15.02;45.08
15568;BME280;7885;42.596;23.044;2023-02-26T07:58:38;91680.13;;;14.50;45.19
15568;BME280;7885;42.596;23.044;2023-02-26T08:01:05;91707.25;;;14.66;46.12
15568;BME280;7885;42.596;23.044;2023-02-26T08:03:32;91699.28;;;14.50;46.22
15568;BME280;7885;42.596;23.044;2023-02-26T08:06:00;91730.22;;;14.38;46.15
15568;BME280;7885;42.596;23.044;2023-02-26T08:08:27;91717.09;;;14.33;46.63
15568;BME280;7885;42.596;23.044;2023-02-26T08:10:54;91723.84;;;14.41;46.32
15568;BME280;7885;42.596;23.044;2023-02-26T08:13:20;91715.94;;;14.22;47.62
15568;BME280;7885;42.596;23.044;2023-02-26T08:15:47;91694.13;;;14.31;45.75
15568;BME280;7885;42.596;23.044;2023-02-26T08:18:14;91721.03;;;14.32;46.37
15568;BME280;7885;42.596;23.044;2023-02-26T08:20:40;91662.78;;;14.32;45.95
15568;BME280;7885;42.596;23.044;2023-02-26T08:23:09;91760.06;;;14.45;46.16
15568;BME280;7885;42.596;23.044;2023-02-26T08:25:35;91724.97;;;14.31;46.17
15568;BME280;7885;42.596;23.044;2023-02-26T08:28:02;91729.69;;;14.52;45.08
15568;BME280;7885;42.596;23.044;2023-02-26T08:30:29;91690.53;;;14.64;44.79
15568;BME280;7885;42.596;23.044;2023-02-26T08:32:56;91793.00;;;14.54;45.78
15568;BME280;7885;42.596;23.044;2023-02-26T08:35:23;91736.69;;;14.53;45.05
15568;BME280;7885;42.596;23.044;2023-02-26T08:37:50;91764.53;;;14.83;44.42
15568;BME280;7885;42.596;23.044;2023-02-26T08:47:01;91696.84;;;14.52;43.89
15568;BME280;7885;42.596;23.044;2023-02-26T08:49:29;91732.56;;;14.80;44.06
15568;BME280;7885;42.596;23.044;2023-02-26T08:51:55;91653.72;;;14.35;44.23
15568;BME280;7885;42.596;23.044;2023-02-26T08:54:22;91706.97;;;14.64;45.14
15568;BME280;7885;42.596;23.044;2023-02-26T08:56:50;91758.53;;;14.97;43.49
15568;BME280;7885;42.596;23.044;2023-02-26T08:59:17;91709.28;;;15.15;42.35
15568;BME280;7885;42.596;23.044;2023-02-26T09:01:44;91665.06;;;15.44;42.21
15568;BME280;7885;42.596;23.044;2023-02-26T09:04:12;91667.38;;;15.63;41.62
15568;BME280;7885;42.596;23.044;2023-02-26T09:06:39;91678.66;;;16.11;40.60
15568;BME280;7885;42.596;23.044;2023-02-26T09:09:06;91681.69;;;16.31;40.49
15568;BME280;7885;42.596;23.044;2023-02-26T09:11:33;91652.25;;;16.83;38.77
15568;BME280;7885;42.596;23.044;2023-02-26T09:14:01;91690.88;;;17.54;37.31
15568;BME280;7885;42.596;23.044;2023-02-26T09:16:29;91655.88;;;16.98;36.70
15568;BME280;7885;42.596;23.044;2023-02-26T09:18:56;91701.25;;;17.26;36.79
15568;BME280;7885;42.596;23.044;2023-02-26T09:21:24;91761.25;;;17.79;35.52
15568;BME280;7885;42.596;23.044;2023-02-26T09:23:51;91695.38;;;17.75;36.15
15568;BME280;7885;42.596;23.044;2023-02-26T09:26:17;91686.78;;;18.35;35.50
15568;BME280;7885;42.596;23.044;2023-02-26T09:32:06;91690.81;;;17.39;34.94
15568;BME280;7885;42.596;23.044;2023-02-26T09:34:32;91763.69;;;17.44;35.31
15568;BME280;7885;42.596;23.044;2023-02-26T09:37:02;91723.44;;;17.13;36.79
15568;BME280;7885;42.596;23.044;2023-02-26T09:39:29;91701.66;;;17.01;36.86
15568;BME280;7885;42.596;23.044;2023-02-26T09:41:58;91690.44;;;16.81;37.27
15568;BME280;7885;42.596;23.044;2023-02-26T09:44:27;91686.72;;;17.02;37.56
15568;BME280;7885;42.596;23.044;2023-02-26T09:47:00;91718.84;;;16.78;37.85
15568;BME280;7885;42.596;23.044;2023-02-26T09:49:34;91753.88;;;17.01;38.00
15568;BME280;7885;42.596;23.044;2023-02-26T09:52:11;91787.09;;;17.30;36.87
15568;BME280;7885;42.596;23.044;2023-02-26T09:54:44;91829.00;;;17.16;36.92
15568;BME280;7885;42.596;23.044;2023-02-26T09:57:17;91697.50;;;17.47;36.79
15568;BME280;7885;42.596;23.044;2023-02-26T09:59:46;91678.63;;;17.31;36.92
15568;BME280;7885;42.596;23.044;2023-02-26T10:02:16;91737.34;;;17.52;36.44
15568;BME280;7885;42.596;23.044;2023-02-26T10:04:50;91704.19;;;18.03;36.03
15568;BME280;7885;42.596;23.044;2023-02-26T10:07:30;91850.38;;;17.72;36.05
15568;BME280;7885;42.596;23.044;2023-02-26T10:10:16;91737.09;;;17.74;36.48
15568;BME280;7885;42.596;23.044;2023-02-26T10:12:45;91835.41;;;17.22;36.94
15568;BME280;7885;42.596;23.044;2023-02-26T10:15:15;91684.91;;;16.99;37.59
15568;BME280;7885;42.596;23.044;2023-02-26T10:17:53;91744.38;;;17.11;37.14
15568;BME280;7885;42.596;23.044;2023-02-26T10:20:27;91751.06;;;16.59;38.28
15568;BME280;7885;42.596;23.044;2023-02-26T10:23:03;91731.47;;;16.93;39.18
15568;BME280;7885;42.596;23.044;2023-02-26T10:25:36;91732.88;;;16.80;38.38
15568;BME280;7885;42.596;23.044;2023-02-26T10:28:16;91798.25;;;16.57;39.73
15568;BME280;7885;42.596;23.044;2023-02-26T10:30:50;91698.78;;;16.17;41.26
15568;BME280;7885;42.596;23.044;2023-02-26T10:33:25;91715.09;;;15.84;41.91
15568;BME280;7885;42.596;23.044;2023-02-26T10:38:48;91680.03;;;15.03;44.03
15568;BME280;7885;42.596;23.044;2023-02-26T10:41:19;91727.25;;;15.16;44.16
15568;BME280;7885;42.596;23.044;2023-02-26T10:43:53;91710.44;;;14.96;45.11
15568;BME280;7885;42.596;23.044;2023-02-26T10:46:27;91720.81;;;15.01;45.64
15568;BME280;7885;42.596;23.044;2023-02-26T10:49:19;91704.72;;;15.12;45.62
15568;BME280;7885;42.596;23.044;2023-02-26T10:51:51;91721.72;;;15.07;46.05
15568;BME280;7885;42.596;23.044;2023-02-26T10:54:26;91708.38;;;15.18;45.83
15568;BME280;7885;42.596;23.044;2023-02-26T10:56:53;91720.53;;;15.08;46.19
15568;BME280;7885;42.596;23.044;2023-02-26T10:59:20;91709.06;;;15.00;46.63
15568;BME280;7885;42.596;23.044;2023-02-26T11:01:47;91729.50;;;15.08;46.39
15568;BME280;7885;42.596;23.044;2023-02-26T11:04:17;91725.63;;;14.88;46.51
15568;BME280;7885;42.596;23.044;2023-02-26T11:06:47;91704.34;;;14.92;47.23
15568;BME280;7885;42.596;23.044;2023-02-26T11:09:19;91717.09;;;14.86;47.26
15568;BME280;7885;42.596;23.044;2023-02-26T11:11:51;91688.06;;;14.57;47.52
15568;BME280;7885;42.596;23.044;2023-02-26T11:14:18;91763.16;;;14.78;48.10
15568;BME280;7885;42.596;23.044;2023-02-26T11:16:48;91693.94;;;14.78;48.56
15568;BME280;7885;42.596;23.044;2023-02-26T11:19:16;91672.56;;;14.63;48.47
15568;BME280;7885;42.596;23.044;2023-02-26T11:21:46;91780.41;;;14.88;47.64
15568;BME280;7885;42.596;23.044;2023-02-26T11:24:16;91679.03;;;14.79;48.82
15568;BME280;7885;42.596;23.044;2023-02-26T11:26:47;91672.94;;;14.84;49.23
15568;BME280;7885;42.596;23.044;2023-02-26T11:29:19;91738.03;;;14.71;48.93
15568;BME280;7885;42.596;23.044;2023-02-26T11:31:49;91715.09;;;14.86;48.99
15568;BME280;7885;42.596;23.044;2023-02-26T11:34:21;91722.34;;;15.02;49.13
15568;BME280;7885;42.596;23.044;2023-02-26T11:36:49;91728.22;;;14.91;48.78
15568;BME280;7885;42.596;23.044;2023-02-26T11:39:19;91727.47;;;14.60;50.05
15568;BME280;7885;42.596;23.044;2023-02-26T11:41:47;91754.53;;;14.58;49.77
15568;BME280;7885;42.596;23.044;2023-02-26T11:44:18;91731.75;;;14.61;49.86
15568;BME280;7885;42.596;23.044;2023-02-26T11:46:50;91744.84;;;14.66;50.01
15568;BME280;7885;42.596;23.044;2023-02-26T11:49:20;91674.50;;;14.32;50.40
15568;BME280;7885;42.596;23.044;2023-02-26T11:52:05;91635.78;;;14.34;50.01
15568;BME280;7885;42.596;23.044;2023-02-26T11:54:38;91690.00;;;14.79;50.38
15568;BME280;7885;42.596;23.044;2023-02-26T11:57:06;91686.16;;;14.76;50.68
15568;BME280;7885;42.596;23.044;2023-02-26T11:59:39;91679.47;;;14.77;50.65
15568;BME280;7885;42.596;23.044;2023-02-26T12:02:10;91695.34;;;14.91;50.57
15568;BME280;7885;42.596;23.044;2023-02-26T12:04:39;91710.13;;;14.94;49.66
15568;BME280;7885;42.596;23.044;2023-02-26T12:07:11;91737.91;;;14.83;49.57
15568;BME280;7885;42.596;23.044;2023-02-26T12:09:39;91711.19;;;14.65;50.13
15568;BME280;7885;42.596;23.044;2023-02-26T12:12:19;91714.22;;;14.58;49.94
15568;BME280;7885;42.596;23.044;2023-02-26T12:15:08;91698.91;;;14.70;50.09
15568;BME280;7885;42.596;23.044;2023-02-26T12:17:52;91727.09;;;14.80;49.21
15568;BME280;7885;42.596;23.044;2023-02-26T12:20:26;91722.25;;;14.84;49.69
15568;BME280;7885;42.596;23.044;2023-02-26T12:23:13;91784.31;;;14.78;49.50
15568;BME280;7885;42.596;23.044;2023-02-26T12:25:53;91755.38;;;14.77;49.22
15568;BME280;7885;42.596;23.044;2023-02-26T12:28:43;91777.56;;;14.70;49.11
15568;BME280;7885;42.596;23.044;2023-02-26T12:31:34;91794.38;;;14.81;49.33
15568;BME280;7885;42.596;23.044;2023-02-26T12:34:19;91749.91;;;14.77;48.93
15568;BME280;7885;42.596;23.044;2023-02-26T12:37:03;91754.88;;;15.00;48.25
15568;BME280;7885;42.596;23.044;2023-02-26T12:39:45;91751.75;;;15.10;47.45
15568;BME280;7885;42.596;23.044;2023-02-26T12:42:24;91724.19;;;15.14;46.93
15568;BME280;7885;42.596;23.044;2023-02-26T12:45:07;91786.03;;;15.55;46.18
15568;BME280;7885;42.596;23.044;2023-02-26T12:47:51;91762.06;;;15.46;45.83
15568;BME280;7885;42.596;23.044;2023-02-26T12:50:33;91777.38;;;15.56;45.85
15568;BME280;7885;42.596;23.044;2023-02-26T12:53:40;91788.94;;;15.51;45.64
15568;BME280;7885;42.596;23.044;2023-02-26T12:56:28;91768.41;;;15.34;46.04
15568;BME280;7885;42.596;23.044;2023-02-26T12:59:10;91825.06;;;15.28;47.10
15568;BME280;7885;42.596;23.044;2023-02-26T13:01:48;91749.06;;;15.20;47.72
15568;BME280;7885;42.596;23.044;2023-02-26T13:04:57;91783.44;;;15.21;46.34
15568;BME280;7885;42.596;23.044;2023-02-26T13:07:48;91781.88;;;15.10;45.96
15568;BME280;7885;42.596;23.044;2023-02-26T13:10:23;91801.41;;;14.91;46.44
15568;BME280;7885;42.596;23.044;2023-02-26T13:13:06;91813.44;;;15.15;45.91
15568;BME280;7885;42.596;23.044;2023-02-26T13:15:52;91738.31;;;14.73;46.14
15568;BME280;7885;42.596;23.044;2023-02-26T13:18:28;91823.19;;;15.16;46.40
15568;BME280;7885;42.596;23.044;2023-02-26T13:21:03;91779.28;;;15.07;46.78
15568;BME280;7885;42.596;23.044;2023-02-26T13:23:35;91824.66;;;15.08;46.86
15568;BME280;7885;42.596;23.044;2023-02-26T13:26:06;91781.53;;;14.99;47.07
15568;BME280;7885;42.596;23.044;2023-02-26T13:28:41;91805.06;;;15.18;47.31
15568;BME280;7885;42.596;23.044;2023-02-26T13:31:12;91760.66;;;15.33;46.09
15568;BME280;7885;42.596;23.044;2023-02-26T13:33:42;91822.44;;;15.25;46.52
15568;BME280;7885;42.596;23.044;2023-02-26T13:36:13;91779.69;;;14.96;47.69
15568;BME280;7885;42.596;23.044;2023-02-26T13:38:49;91780.19;;;15.04;46.80
15568;BME280;7885;42.596;23.044;2023-02-26T13:41:21;91773.78;;;15.07;47.55
15568;BME280;7885;42.596;23.044;2023-02-26T13:44:04;91766.03;;;15.05;47.21
15568;BME280;7885;42.596;23.044;2023-02-26T13:46:41;91782.00;;;15.07;47.31
15568;BME280;7885;42.596;23.044;2023-02-26T13:49:16;91721.22;;;15.30;46.59
15568;BME280;7885;42.596;23.044;2023-02-26T13:51:48;91831.91;;;15.54;45.82
15568;BME280;7885;42.596;23.044;2023-02-26T13:54:42;91768.72;;;15.27;46.53
15568;BME280;7885;42.596;23.044;2023-02-26T13:57:25;91810.72;;;15.24;45.82
15568;BME280;7885;42.596;23.044;2023-02-26T14:00:00;91815.25;;;15.18;46.07